Time;durP1;ratioP1;P1;durP2;ratioP2;P2;SDS_P1;SDS_P2;PMS_P1;PMS_P2;Temp;Humidity;BMP_temperature;BMP_pressure;BME280_temperature;BME280_humidity;BME280_pressure;Samples;Min_cycle;Max_cycle;Signal;HPM_P1;HPM_P2
2024/01/23 00:00:14;;;;;;;41.67;29.93;;;0.00;99.90;;;;;;6273936;28;20231;-66
2024/01/23 00:03:15;;;;;;;40.87;29.77;;;0.00;99.90;;;;;;6273110;28;20284;-66
2024/01/23 00:06:16;;;;;;;47.53;31.33;;;0.00;99.90;;;;;;6273593;28;20185;-66
2024/01/23 00:09:17;;;;;;;51.93;32.07;;;0.00;99.90;;;;;;6281253;28;20262;-66
2024/01/23 00:12:18;;;;;;;49.33;31.77;;;0.00;99.90;;;;;;6276034;28;20180;-66
2024/01/23 00:15:18;;;;;;;43.83;32.40;;;0.00;99.90;;;;;;6260920;28;20223;-66
2024/01/23 00:18:19;;;;;;;48.30;31.47;;;0.00;99.90;;;;;;6279665;28;20184;-66
2024/01/23 00:21:20;;;;;;;44.23;29.50;;;0.00;99.90;;;;;;6257792;28;20188;-66
2024/01/23 00:24:20;;;;;;;48.23;32.97;;;0.00;99.90;;;;;;6261716;28;20220;-66
2024/01/23 00:27:21;;;;;;;49.30;31.57;;;0.00;99.90;;;;;;6268137;28;20188;-66
2024/01/23 00:30:22;;;;;;;47.87;31.43;;;0.00;99.90;;;;;;6264865;28;20222;-67
2024/01/23 00:33:22;;;;;;;45.23;32.67;;;0.00;99.90;;;;;;6266213;28;20199;-67
2024/01/23 00:36:23;;;;;;;45.43;30.73;;;-0.10;99.90;;;;;;6270819;28;20193;-67
2024/01/23 00:39:24;;;;;;;42.93;30.47;;;-0.10;99.90;;;;;;6255727;28;20320;-67
2024/01/23 00:42:25;;;;;;;46.40;29.97;;;0.00;99.90;;;;;;6265864;28;20285;-67
2024/01/23 00:45:26;;;;;;;42.80;30.23;;;0.00;99.90;;;;;;6294302;28;20214;-66
2024/01/23 00:48:26;;;;;;;39.50;28.47;;;0.00;99.90;;;;;;6269260;28;20188;-66
2024/01/23 00:51:28;;;;;;;37.47;29.30;;;0.00;99.90;;;;;;6255458;28;20238;-66
2024/01/23 00:54:29;;;;;;;46.60;30.30;;;0.00;99.90;;;;;;6280092;28;20185;-66
2024/01/23 00:57:30;;;;;;;44.43;29.73;;;0.00;99.90;;;;;;6273611;28;20203;-66
2024/01/23 01:00:31;;;;;;;44.13;31.37;;;-0.10;99.90;;;;;;6272549;28;20236;-66
2024/01/23 01:03:32;;;;;;;44.53;30.27;;;-0.10;99.90;;;;;;6279184;28;20217;-66
2024/01/23 01:06:32;;;;;;;45.47;30.43;;;-0.10;99.90;;;;;;6265964;28;20193;-66
2024/01/23 01:09:33;;;;;;;42.83;30.07;;;-0.20;99.90;;;;;;6256653;28;20213;-66
2024/01/23 01:12:34;;;;;;;41.37;28.83;;;-0.20;99.90;;;;;;6269954;28;20196;-66
2024/01/23 01:15:35;;;;;;;40.50;28.90;;;-0.20;99.90;;;;;;6269645;28;20180;-67
2024/01/23 01:18:36;;;;;;;37.57;27.00;;;-0.10;99.90;;;;;;6271182;28;20187;-67
2024/01/23 01:21:37;;;;;;;41.33;29.33;;;-0.20;99.90;;;;;;6269847;28;20192;-66
2024/01/23 01:24:38;;;;;;;37.50;26.43;;;-0.20;99.90;;;;;;6266081;28;20205;-66
2024/01/23 01:27:38;;;;;;;38.47;28.70;;;-0.20;99.90;;;;;;6261488;28;20173;-66
2024/01/23 01:30:39;;;;;;;43.20;29.97;;;-0.10;99.90;;;;;;6272272;28;20194;-66
2024/01/23 01:33:40;;;;;;;47.33;30.43;;;-0.20;99.90;;;;;;6267313;28;20200;-66
2024/01/23 01:36:40;;;;;;;42.50;30.10;;;-0.10;99.90;;;;;;6265630;28;20190;-66
2024/01/23 01:39:41;;;;;;;41.77;29.97;;;-0.10;99.90;;;;;;6271428;28;20196;-66
2024/01/23 01:42:42;;;;;;;46.10;30.67;;;-0.20;99.90;;;;;;6270147;28;20243;-66
2024/01/23 01:45:43;;;;;;;47.37;31.50;;;-0.20;99.90;;;;;;6286495;28;20184;-67
2024/01/23 01:48:46;;;;;;;39.33;28.33;;;-0.20;99.90;;;;;;6275547;28;20184;-67
2024/01/23 01:51:47;;;;;;;43.83;30.17;;;-0.20;99.90;;;;;;6295385;28;20188;-66
2024/01/23 01:54:48;;;;;;;48.10;32.13;;;-0.30;99.90;;;;;;6278254;28;20199;-67
2024/01/23 01:57:49;;;;;;;50.97;32.07;;;-0.30;99.90;;;;;;6257224;28;20188;-67
2024/01/23 02:00:52;;;;;;;41.23;29.53;;;-0.30;99.90;;;;;;6264389;28;20256;-66
2024/01/23 02:03:53;;;;;;;40.60;30.47;;;-0.30;99.90;;;;;;6258581;28;20292;-67
2024/01/23 02:06:54;;;;;;;44.73;30.50;;;-0.30;99.90;;;;;;6252968;28;20177;-67
2024/01/23 02:09:55;;;;;;;39.93;27.90;;;-0.40;99.90;;;;;;6298006;28;20177;-67
2024/01/23 02:12:56;;;;;;;48.23;30.63;;;-0.40;99.90;;;;;;6264001;28;20207;-67
2024/01/23 02:15:56;;;;;;;42.53;29.10;;;-0.40;99.90;;;;;;6278836;28;20184;-67
2024/01/23 02:18:57;;;;;;;41.23;29.70;;;-0.40;99.90;;;;;;6264678;28;20236;-67
2024/01/23 02:21:58;;;;;;;43.97;29.27;;;-0.40;99.90;;;;;;6253128;28;20186;-67
2024/01/23 02:24:58;;;;;;;43.87;29.90;;;-0.40;99.90;;;;;;6270995;28;20228;-67
2024/01/23 02:28:00;;;;;;;45.47;30.10;;;-0.50;99.90;;;;;;6294383;28;20174;-67
2024/01/23 02:31:00;;;;;;;36.93;27.17;;;-0.50;99.90;;;;;;6271578;28;20263;-66
2024/01/23 02:34:01;;;;;;;43.43;28.50;;;-0.50;99.90;;;;;;6267516;28;20188;-67
2024/01/23 02:37:02;;;;;;;40.37;28.77;;;-0.50;99.90;;;;;;6266836;28;20205;-67
2024/01/23 02:40:04;;;;;;;40.37;28.27;;;-0.50;99.90;;;;;;6280328;28;20180;-69
2024/01/23 02:43:04;;;;;;;45.50;29.77;;;-0.50;99.90;;;;;;6265085;28;20209;-67
2024/01/23 02:46:05;;;;;;;43.53;30.87;;;-0.50;99.90;;;;;;6256953;28;20193;-67
2024/01/23 02:49:06;;;;;;;43.50;28.47;;;-0.60;99.90;;;;;;6273462;28;20188;-66
2024/01/23 02:52:06;;;;;;;43.10;31.07;;;-0.60;99.90;;;;;;6294263;28;20180;-67
2024/01/23 02:55:07;;;;;;;41.80;30.53;;;-0.60;99.90;;;;;;6274426;28;20193;-67
2024/01/23 02:58:09;;;;;;;43.83;28.40;;;-0.60;99.90;;;;;;6263832;28;20197;-67
2024/01/23 03:01:10;;;;;;;42.23;29.07;;;-0.60;99.90;;;;;;6270901;28;20234;-67
2024/01/23 03:04:10;;;;;;;42.80;29.27;;;-0.60;99.90;;;;;;6262119;28;20272;-67
2024/01/23 03:07:12;;;;;;;42.23;28.43;;;-0.60;99.90;;;;;;6245505;28;20186;-67
2024/01/23 03:10:12;;;;;;;38.60;27.17;;;-0.60;99.90;;;;;;6261348;28;20185;-67
2024/01/23 03:13:13;;;;;;;40.43;27.30;;;-0.60;99.90;;;;;;6239988;28;20208;-67
2024/01/23 03:16:14;;;;;;;35.73;24.70;;;-0.60;99.90;;;;;;6234899;28;20184;-67
2024/01/23 03:19:15;;;;;;;40.23;23.47;;;-0.70;99.90;;;;;;6258771;28;20215;-66
2024/01/23 03:22:16;;;;;;;28.87;20.90;;;-0.70;99.90;;;;;;6256320;28;20296;-66
2024/01/23 03:25:16;;;;;;;31.23;20.80;;;-0.70;99.90;;;;;;6257147;28;20206;-67
2024/01/23 03:28:17;;;;;;;32.90;20.93;;;-0.70;99.90;;;;;;6247767;28;20189;-67
2024/01/23 03:31:18;;;;;;;35.27;22.67;;;-0.70;99.90;;;;;;6269781;28;20181;-67
2024/01/23 03:34:19;;;;;;;39.13;24.17;;;-0.70;99.90;;;;;;6260615;28;20224;-67
2024/01/23 03:37:20;;;;;;;35.27;22.73;;;-0.80;99.90;;;;;;6255704;28;20666;-67
2024/01/23 03:40:21;;;;;;;36.43;23.23;;;-0.80;99.90;;;;;;6229485;28;20182;-67
2024/01/23 03:43:23;;;;;;;38.43;22.13;;;-0.80;99.90;;;;;;6257247;28;20209;-66
2024/01/23 03:46:23;;;;;;;33.20;23.30;;;-0.80;99.90;;;;;;6233999;28;20269;-66
2024/01/23 03:49:24;;;;;;;31.70;20.00;;;-0.70;99.90;;;;;;6249741;28;20235;-66
2024/01/23 03:52:25;;;;;;;27.13;18.27;;;-0.70;99.90;;;;;;6269583;28;20303;-66
2024/01/23 03:55:26;;;;;;;25.40;18.13;;;-0.70;99.90;;;;;;6243402;28;20190;-66
2024/01/23 03:58:26;;;;;;;28.43;19.53;;;-0.70;99.90;;;;;;6284451;28;20185;-66
2024/01/23 04:01:27;;;;;;;29.27;18.20;;;-0.70;99.90;;;;;;6275077;28;20223;-66
2024/01/23 04:04:28;;;;;;;27.37;18.33;;;-0.70;99.90;;;;;;6257499;28;20217;-66
2024/01/23 04:07:28;;;;;;;25.07;18.63;;;-0.70;99.90;;;;;;6267584;28;20186;-66
2024/01/23 04:10:29;;;;;;;25.97;17.47;;;-0.70;99.90;;;;;;6261870;28;20205;-67
2024/01/23 04:13:30;;;;;;;27.03;15.73;;;-0.80;99.90;;;;;;6245297;28;20283;-69
2024/01/23 04:16:31;;;;;;;27.77;17.97;;;-0.70;99.90;;;;;;6267289;28;20272;-66
2024/01/23 04:19:31;;;;;;;23.73;15.57;;;-0.70;99.90;;;;;;6254307;28;20194;-66
2024/01/23 04:22:34;;;;;;;23.03;14.77;;;-0.80;99.90;;;;;;6257223;28;20196;-66
2024/01/23 04:25:35;;;;;;;20.23;14.80;;;-0.70;99.90;;;;;;6272378;28;20188;-66
2024/01/23 04:28:36;;;;;;;21.40;13.33;;;-0.70;99.90;;;;;;6272281;28;20181;-66
2024/01/23 04:31:37;;;;;;;16.90;12.20;;;-0.60;99.90;;;;;;6287750;28;20589;-66
2024/01/23 04:34:37;;;;;;;17.67;12.70;;;-0.60;99.90;;;;;;6270894;28;20186;-66
2024/01/23 04:37:38;;;;;;;22.27;12.77;;;-0.60;99.90;;;;;;6264062;28;20181;-66
2024/01/23 04:40:39;;;;;;;13.53;10.63;;;-0.60;99.90;;;;;;6257205;28;20193;-66
2024/01/23 04:43:39;;;;;;;14.80;9.87;;;-0.60;99.90;;;;;;6279974;28;20217;-66
2024/01/23 04:46:40;;;;;;;16.43;10.50;;;-0.60;99.90;;;;;;6272362;28;20255;-66
2024/01/23 04:49:41;;;;;;;17.60;10.20;;;-0.50;99.90;;;;;;6280430;28;20280;-66
2024/01/23 04:52:42;;;;;;;15.77;9.70;;;-0.40;99.90;;;;;;6281568;28;20284;-66
2024/01/23 04:55:42;;;;;;;13.97;10.00;;;-0.30;99.90;;;;;;6274836;28;20273;-66
2024/01/23 04:58:43;;;;;;;13.33;10.17;;;-0.30;99.90;;;;;;6269522;28;20197;-66
2024/01/23 05:01:44;;;;;;;16.87;10.10;;;-0.30;99.90;;;;;;6258355;28;20240;-66
2024/01/23 05:04:45;;;;;;;15.30;10.50;;;-0.40;99.90;;;;;;6257017;28;20203;-66
2024/01/23 05:07:46;;;;;;;14.27;9.87;;;-0.30;99.90;;;;;;6264552;28;20212;-66
2024/01/23 05:10:46;;;;;;;14.07;10.20;;;-0.30;99.90;;;;;;6274132;28;20279;-66
2024/01/23 05:13:47;;;;;;;11.90;9.30;;;-0.30;99.90;;;;;;6294945;28;20189;-68
2024/01/23 05:16:48;;;;;;;14.67;9.73;;;-0.30;99.90;;;;;;6258457;28;20189;-66
2024/01/23 05:19:49;;;;;;;14.87;9.87;;;-0.30;99.90;;;;;;6265373;28;20186;-65
2024/01/23 05:22:49;;;;;;;18.17;11.10;;;-0.30;99.90;;;;;;6273543;28;20262;-66
2024/01/23 05:25:50;;;;;;;15.70;11.13;;;-0.40;99.90;;;;;;6257397;28;20190;-66
2024/01/23 05:28:51;;;;;;;14.57;11.77;;;-0.30;99.90;;;;;;6283933;28;20186;-65
2024/01/23 05:31:52;;;;;;;13.20;9.23;;;-0.40;99.90;;;;;;6260380;28;20189;-65
2024/01/23 05:34:52;;;;;;;15.27;9.23;;;-0.50;99.90;;;;;;6280515;28;20197;-65
2024/01/23 05:37:53;;;;;;;11.73;8.87;;;-0.40;99.90;;;;;;6280520;28;20211;-65
2024/01/23 05:40:54;;;;;;;16.03;9.87;;;-0.40;99.90;;;;;;6262372;28;20199;-65
2024/01/23 05:43:57;;;;;;;13.20;9.30;;;-0.40;99.90;;;;;;6258839;28;20216;-65
2024/01/23 05:46:58;;;;;;;14.50;8.93;;;-0.40;99.90;;;;;;6259034;28;20199;-65
2024/01/23 05:49:59;;;;;;;14.53;8.53;;;-0.40;99.90;;;;;;6283048;28;20184;-65
2024/01/23 05:53:00;;;;;;;14.17;8.70;;;-0.50;99.90;;;;;;6294844;28;20185;-65
2024/01/23 05:56:01;;;;;;;12.73;9.30;;;-0.50;99.90;;;;;;6261829;28;20262;-65
2024/01/23 05:59:02;;;;;;;12.47;9.47;;;-0.50;99.90;;;;;;6278082;28;20216;-65
2024/01/23 06:02:04;;;;;;;11.90;8.57;;;-0.50;99.90;;;;;;6288476;28;20217;-65
2024/01/23 06:05:05;;;;;;;13.57;9.93;;;-0.50;99.90;;;;;;6268209;28;20215;-65
2024/01/23 06:08:06;;;;;;;17.23;11.23;;;-0.50;99.90;;;;;;6266189;28;20180;-65
2024/01/23 06:11:07;;;;;;;19.63;10.07;;;-0.50;99.90;;;;;;6302277;28;20186;-65
2024/01/23 06:14:08;;;;;;;16.37;11.27;;;-0.50;99.90;;;;;;6268025;28;20268;-65
2024/01/23 06:17:08;;;;;;;14.83;9.87;;;-0.50;99.90;;;;;;6277008;28;20189;-65
2024/01/23 06:20:12;;;;;;;15.27;9.37;;;-0.50;99.90;;;;;;6268430;28;20185;-65
2024/01/23 06:23:13;;;;;;;15.13;9.67;;;-0.50;99.90;;;;;;6289728;28;20204;-65
2024/01/23 06:26:14;;;;;;;12.23;7.73;;;-0.40;99.90;;;;;;6292209;28;20187;-65
2024/01/23 06:29:15;;;;;;;18.53;10.07;;;-0.40;99.90;;;;;;6270457;28;20185;-65
2024/01/23 06:32:16;;;;;;;15.77;9.07;;;-0.30;99.90;;;;;;6274267;28;20229;-65
2024/01/23 06:35:16;;;;;;;10.47;7.97;;;-0.20;99.90;;;;;;6261805;28;20196;-65
2024/01/23 06:38:17;;;;;;;15.23;8.93;;;-0.20;99.90;;;;;;6277960;28;20208;-65
2024/01/23 06:41:18;;;;;;;14.70;8.30;;;-0.20;99.90;;;;;;6258024;28;20185;-65
2024/01/23 06:44:18;;;;;;;14.37;9.10;;;-0.20;99.90;;;;;;6269198;28;20208;-65
2024/01/23 06:47:19;;;;;;;14.10;9.83;;;-0.20;99.90;;;;;;6273584;28;20193;-65
2024/01/23 06:50:20;;;;;;;12.93;9.53;;;-0.20;99.90;;;;;;6265117;28;20275;-65
2024/01/23 06:53:20;;;;;;;15.20;9.77;;;-0.20;99.90;;;;;;6272648;28;20184;-65
2024/01/23 06:56:21;;;;;;;9.97;8.00;;;-0.30;99.90;;;;;;6263345;28;20196;-65
2024/01/23 06:59:22;;;;;;;16.73;9.93;;;-0.40;99.90;;;;;;6283506;28;20301;-65
2024/01/23 07:02:22;;;;;;;15.17;11.37;;;-0.50;99.90;;;;;;6266433;28;20185;-65
2024/01/23 07:05:23;;;;;;;20.87;15.77;;;-0.50;99.90;;;;;;6290172;28;20213;-65
2024/01/23 07:08:24;;;;;;;30.23;17.40;;;-0.50;99.90;;;;;;6273049;28;20231;-65
2024/01/23 07:11:25;;;;;;;23.00;16.50;;;-0.50;99.90;;;;;;6284700;28;20176;-65
2024/01/23 07:14:25;;;;;;;22.07;15.33;;;-0.50;99.90;;;;;;6286570;28;20196;-65
2024/01/23 07:17:34;;;;;;;21.77;15.97;;;-0.50;99.90;;;;;;6269572;28;20191;-65
2024/01/23 07:20:36;;;;;;;24.63;16.37;;;-0.50;99.90;;;;;;6273540;28;20180;-65
2024/01/23 07:23:37;;;;;;;22.73;17.10;;;-0.50;99.90;;;;;;6275799;28;20200;-65
2024/01/23 07:26:38;;;;;;;28.00;20.70;;;-0.60;99.90;;;;;;6274330;28;20204;-65
2024/01/23 07:29:39;;;;;;;26.70;17.47;;;-0.50;99.90;;;;;;6298489;28;20187;-65
2024/01/23 07:32:39;;;;;;;23.90;15.73;;;-0.60;99.90;;;;;;6266022;28;20180;-65
2024/01/23 07:35:40;;;;;;;25.73;16.23;;;-0.50;99.90;;;;;;6266242;28;20184;-65
2024/01/23 07:38:41;;;;;;;23.60;17.47;;;-0.50;99.90;;;;;;6265153;28;20189;-65
2024/01/23 07:41:43;;;;;;;31.30;20.77;;;-0.50;99.90;;;;;;6268832;28;20188;-65
2024/01/23 07:44:45;;;;;;;32.80;20.97;;;-0.60;99.90;;;;;;6284050;28;20292;-65
2024/01/23 07:47:47;;;;;;;24.30;18.37;;;-0.60;99.90;;;;;;6273359;28;20185;-65
2024/01/23 07:50:47;;;;;;;27.70;19.53;;;-0.60;99.90;;;;;;6272940;28;20270;-65
2024/01/23 07:53:50;;;;;;;39.00;25.30;;;-0.50;99.90;;;;;;6265016;28;20189;-65
2024/01/23 07:56:51;;;;;;;32.93;22.80;;;-0.60;99.90;;;;;;6281273;28;20189;-65
2024/01/23 07:59:51;;;;;;;29.37;21.90;;;-0.50;99.90;;;;;;6275402;28;20327;-65
2024/01/23 08:02:52;;;;;;;32.37;22.23;;;-0.60;99.90;;;;;;6265981;28;20196;-65
2024/01/23 08:05:53;;;;;;;27.43;20.07;;;-0.60;99.90;;;;;;6264475;28;20203;-65
2024/01/23 08:08:54;;;;;;;36.07;24.30;;;-0.50;99.90;;;;;;6289082;28;20203;-65
2024/01/23 08:11:54;;;;;;;35.00;23.20;;;-0.50;99.90;;;;;;6279763;28;20178;-65
2024/01/23 08:14:55;;;;;;;34.73;23.17;;;-0.50;99.90;;;;;;6261799;28;20229;-65
2024/01/23 08:17:56;;;;;;;33.70;24.40;;;-0.50;99.90;;;;;;6257191;28;20211;-65
2024/01/23 08:20:56;;;;;;;35.40;24.63;;;-0.50;99.90;;;;;;6282378;28;20184;-65
2024/01/23 08:23:57;;;;;;;31.00;22.10;;;-0.50;99.90;;;;;;6278221;28;20205;-65
2024/01/23 08:26:58;;;;;;;31.27;23.23;;;-0.40;99.90;;;;;;6265672;28;20191;-65
2024/01/23 08:29:58;;;;;;;34.37;24.23;;;-0.40;99.90;;;;;;6304036;28;20241;-65
2024/01/23 08:32:59;;;;;;;30.93;23.93;;;-0.30;99.90;;;;;;6270939;28;20196;-65
2024/01/23 08:36:03;;;;;;;39.97;27.73;;;-0.30;99.90;;;;;;6289020;28;20205;-65
2024/01/23 08:39:04;;;;;;;49.37;33.57;;;-0.20;99.90;;;;;;6292116;28;20194;-65
2024/01/23 08:42:05;;;;;;;43.80;29.80;;;-0.10;99.90;;;;;;6293251;28;20184;-65
2024/01/23 08:45:06;;;;;;;45.23;29.77;;;0.00;99.90;;;;;;6280233;28;20215;-65
2024/01/23 08:48:07;;;;;;;41.40;28.47;;;0.00;99.90;;;;;;6277102;28;20208;-65
2024/01/23 08:51:07;;;;;;;37.57;28.20;;;0.00;99.90;;;;;;6278298;28;20181;-65
2024/01/23 08:54:08;;;;;;;46.90;30.40;;;0.10;99.90;;;;;;6255048;28;20191;-65
2024/01/23 08:57:09;;;;;;;46.83;31.87;;;0.20;99.90;;;;;;6265657;28;20685;-65
2024/01/23 09:00:13;;;;;;;37.00;29.93;;;0.20;99.90;;;;;;6272759;28;20325;-65
2024/01/23 09:03:14;;;;;;;45.83;30.30;;;0.30;99.90;;;;;;6270153;28;20205;-65
2024/01/23 09:06:15;;;;;;;37.93;28.23;;;0.40;99.90;;;;;;6268557;28;20214;-65
2024/01/23 09:09:15;;;;;;;33.93;25.27;;;0.40;99.90;;;;;;6273104;28;20197;-65
2024/01/23 09:12:16;;;;;;;39.30;27.60;;;0.40;99.90;;;;;;6258702;28;20189;-65
2024/01/23 09:15:17;;;;;;;35.53;26.37;;;0.40;99.90;;;;;;6278842;28;20193;-65
2024/01/23 09:18:18;;;;;;;35.33;26.83;;;0.50;99.90;;;;;;6251471;28;20189;-65
2024/01/23 09:21:20;;;;;;;40.03;27.50;;;0.60;99.90;;;;;;6251432;28;20189;-65
2024/01/23 09:24:20;;;;;;;40.47;29.50;;;0.60;99.90;;;;;;6269298;28;20200;-65
2024/01/23 09:27:22;;;;;;;36.40;27.40;;;0.60;99.90;;;;;;6278979;28;20204;-65
2024/01/23 09:30:23;;;;;;;40.47;30.43;;;0.80;99.90;;;;;;6273662;28;20211;-65
2024/01/23 09:33:23;;;;;;;38.03;29.00;;;1.00;99.90;;;;;;6261938;28;20185;-65
2024/01/23 09:36:24;;;;;;;33.23;27.07;;;1.00;99.90;;;;;;6265796;28;20185;-65
2024/01/23 09:39:25;;;;;;;34.53;23.97;;;1.20;99.90;;;;;;6276671;28;20193;-65
2024/01/23 09:42:26;;;;;;;31.00;24.03;;;1.30;99.90;;;;;;6273225;28;20180;-65
2024/01/23 09:45:29;;;;;;;38.73;28.40;;;1.40;99.90;;;;;;6269103;28;20200;-65
2024/01/23 09:48:31;;;;;;;37.00;28.70;;;1.50;99.90;;;;;;6281856;28;20181;-65
2024/01/23 09:51:34;;;;;;;33.00;25.23;;;1.60;99.90;;;;;;6287798;28;20280;-65
2024/01/23 09:54:35;;;;;;;30.00;25.10;;;1.70;99.90;;;;;;6290971;28;20269;-66
2024/01/23 09:57:38;;;;;;;32.73;23.37;;;1.70;99.90;;;;;;6271971;28;20244;-66
2024/01/23 10:00:39;;;;;;;32.00;25.50;;;1.80;99.90;;;;;;6294041;28;20316;-66
2024/01/23 10:03:48;;;;;;;55.30;34.63;;;1.80;99.90;;;;;;6267728;28;20259;-66
2024/01/23 10:06:48;;;;;;;58.13;37.17;;;1.90;99.90;;;;;;6300547;28;20262;-66
2024/01/23 10:09:49;;;;;;;44.10;31.07;;;2.00;99.90;;;;;;6289023;28;20181;-66
2024/01/23 10:12:50;;;;;;;38.43;28.47;;;2.10;99.90;;;;;;6280216;28;20189;-66
2024/01/23 10:15:57;;;;;;;42.20;31.47;;;2.20;99.90;;;;;;6293456;28;20184;-66
2024/01/23 10:18:59;;;;;;;35.13;27.37;;;2.30;99.90;;;;;;6276464;28;20180;-66
2024/01/23 10:22:00;;;;;;;47.30;34.93;;;2.50;99.90;;;;;;6292212;28;20181;-66
2024/01/23 10:25:13;;;;;;;44.73;32.50;;;24.00;50.00;;;;;;6279168;28;20200;-66
2024/01/23 10:28:15;;;;;;;38.57;27.93;;;2.70;99.90;;;;;;6298631;28;20289;-66
2024/01/23 10:31:16;;;;;;;34.93;25.83;;;2.80;99.90;;;;;;6265852;28;20187;-66
2024/01/23 10:34:17;;;;;;;28.67;25.40;;;3.00;99.90;;;;;;6271133;28;20192;-66
2024/01/23 10:37:19;;;;;;;32.83;25.53;;;3.10;99.90;;;;;;6287446;28;20231;-66
2024/01/23 10:40:23;;;;;;;35.77;26.97;;;3.20;99.90;;;;;;6296282;28;20657;-66
2024/01/23 10:43:26;;;;;;;27.43;21.43;;;3.10;99.90;;;;;;6277152;28;20204;-66
2024/01/23 10:46:28;;;;;;;24.70;20.97;;;3.10;99.90;;;;;;6281638;28;20234;-66
2024/01/23 10:49:29;;;;;;;22.47;18.30;;;3.10;99.90;;;;;;6294332;28;20217;-66
2024/01/23 10:52:36;;;;;;;21.60;16.37;;;3.30;99.90;;;;;;6262748;28;20189;-66
2024/01/23 10:55:39;;;;;;;22.77;17.27;;;3.40;99.90;;;;;;6303905;28;20209;-66
2024/01/23 10:58:42;;;;;;;19.80;16.13;;;3.50;99.90;;;;;;6280115;28;20675;-66
2024/01/23 11:01:44;;;;;;;19.43;15.73;;;;;;;;;;6284933;28;20247;-66
2024/01/23 11:04:45;;;;;;;18.20;15.30;;;3.60;99.90;;;;;;6295939;28;20204;-66
2024/01/23 11:07:57;;;;;;;20.40;15.30;;;4.00;99.90;;;;;;6271840;28;20237;-66
2024/01/23 11:11:10;;;;;;;16.67;14.17;;;4.20;99.90;;;;;;6305977;28;20194;-66
2024/01/23 11:14:23;;;;;;;13.67;12.23;;;4.30;99.90;;;;;;6298528;28;20204;-66
2024/01/23 11:17:25;;;;;;;15.90;11.67;;;4.40;99.90;;;;;;6290061;28;20184;-66
2024/01/23 11:20:25;;;;;;;13.87;11.63;;;4.50;99.90;;;;;;6288548;28;20195;-66
2024/01/23 11:23:26;;;;;;;11.07;9.90;;;4.70;99.90;;;;;;6264897;28;20208;-66
2024/01/23 11:26:27;;;;;;;9.77;8.50;;;4.70;99.90;;;;;;6263509;28;20191;-66
2024/01/23 11:29:28;;;;;;;10.07;8.10;;;4.90;99.90;;;;;;6271085;28;20184;-66
2024/01/23 11:32:29;;;;;;;7.93;6.83;;;5.00;99.90;;;;;;6271586;28;20192;-66
2024/01/23 11:35:30;;;;;;;14.73;8.90;;;5.00;99.90;;;;;;6271844;28;20199;-66
2024/01/23 11:38:43;;;;;;;11.10;8.00;;;5.00;99.90;;;;;;6286826;28;20212;-66
2024/01/23 11:41:51;;;;;;;10.57;7.87;;;5.00;99.90;;;;;;6302309;28;20177;-66
2024/01/23 11:45:28;;;;;;;10.43;7.40;;;4.90;99.90;;;;;;6295272;28;20300;-66
2024/01/23 11:48:29;;;;;;;8.47;5.37;;;4.80;99.90;;;;;;6309307;28;20180;-66
2024/01/23 11:51:30;;;;;;;8.80;4.97;;;4.80;99.90;;;;;;6299660;28;20180;-66
2024/01/23 11:54:31;;;;;;;4.30;3.90;;;4.80;99.90;;;;;;6282104;28;20193;-66
2024/01/23 11:57:33;;;;;;;5.10;4.00;;;5.00;99.90;;;;;;6285739;28;20184;-66
2024/01/23 12:00:34;;;;;;;6.13;4.10;;;;;;;;;;6268087;28;20228;-66
2024/01/23 12:03:35;;;;;;;5.13;4.63;;;24.00;50.00;;;;;;6294896;28;20206;-66
2024/01/23 12:06:36;;;;;;;6.27;5.00;;;5.50;99.90;;;;;;6281939;28;20211;-66
2024/01/23 12:09:37;;;;;;;6.60;5.50;;;5.70;99.90;;;;;;6284688;28;20689;-66
2024/01/23 12:12:38;;;;;;;5.00;4.43;;;5.80;99.90;;;;;;6260803;28;20185;-66
2024/01/23 12:15:39;;;;;;;4.60;2.70;;;6.00;99.90;;;;;;6265466;28;20227;-66
2024/01/23 12:18:40;;;;;;;13.37;8.97;;;6.00;99.90;;;;;;6251692;28;20254;-66
2024/01/23 12:21:41;;;;;;;10.27;8.97;;;5.90;99.90;;;;;;6255324;28;20193;-66
2024/01/23 12:24:42;;;;;;;13.83;8.23;;;6.00;99.90;;;;;;6267998;28;20214;-66
2024/01/23 12:27:43;;;;;;;2.07;1.30;;;6.10;99.90;;;;;;6298433;28;20199;-66
2024/01/23 12:30:48;;;;;;;1.47;0.70;;;6.00;99.90;;;;;;6295373;28;20181;-66
2024/01/23 12:33:48;;;;;;;1.17;0.93;;;6.20;92.90;;;;;;6276435;28;20186;-66
2024/01/23 12:36:50;;;;;;;2.80;0.87;;;6.10;93.20;;;;;;6268050;28;20220;-66
2024/01/23 12:39:53;;;;;;;0.60;0.60;;;6.10;87.50;;;;;;6297966;28;20216;-66
2024/01/23 12:42:53;;;;;;;1.93;0.67;;;5.90;93.00;;;;;;6283750;28;20193;-66
2024/01/23 12:45:55;;;;;;;1.40;0.63;;;6.00;87.00;;;;;;6287292;28;20192;-66
2024/01/23 12:49:06;;;;;;;1.50;0.83;;;6.00;88.00;;;;;;6276202;28;20251;-66
2024/01/23 12:52:15;;;;;;;1.67;1.00;;;6.00;90.20;;;;;;6267942;28;20189;-66
2024/01/23 12:55:16;;;;;;;1.40;0.80;;;6.10;87.50;;;;;;6293931;28;20196;-66
2024/01/23 12:58:17;;;;;;;1.40;1.07;;;6.20;83.90;;;;;;6289108;28;20188;-66
2024/01/23 13:01:18;;;;;;;2.00;0.70;;;6.40;83.30;;;;;;6263420;28;20239;-66
2024/01/23 13:04:18;;;;;;;2.00;0.63;;;6.60;82.10;;;;;;6283969;28;20217;-65
2024/01/23 13:07:19;;;;;;;1.20;0.60;;;6.70;77.40;;;;;;6261542;28;20194;-66
2024/01/23 13:10:20;;;;;;;2.03;1.00;;;6.80;74.00;;;;;;6264806;28;20188;-66
2024/01/23 13:13:21;;;;;;;2.93;1.23;;;6.70;71.20;;;;;;6276397;28;20196;-66
2024/01/23 13:16:22;;;;;;;0.87;0.70;;;6.70;75.40;;;;;;6274189;28;20197;-65
2024/01/23 13:19:23;;;;;;;2.03;0.73;;;;;;;;;;6288484;28;20197;-65
2024/01/23 13:22:24;;;;;;;1.30;0.77;;;;;;;;;;6291924;28;20180;-65
2024/01/23 13:25:26;;;;;;;0.90;0.60;;;;;;;;;;6293217;28;20204;-65
2024/01/23 13:28:27;;;;;;;1.30;0.80;;;6.50;80.40;;;;;;6280713;28;20184;-65
2024/01/23 13:31:29;;;;;;;0.47;0.47;;;;;;;;;;6271035;28;20212;-65
2024/01/23 13:34:35;;;;;;;2.30;0.60;;;;;;;;;;6285768;28;20188;-65
2024/01/23 13:37:36;;;;;;;1.13;0.70;;;;;;;;;;6302717;28;20193;-65
2024/01/23 13:40:37;;;;;;;1.80;1.13;;;;;;;;;;6280057;28;20184;-65
2024/01/23 13:43:38;;;;;;;0.50;0.50;;;;;;;;;;6287692;28;20208;-65
2024/01/23 13:46:40;;;;;;;1.87;0.90;;;;;;;;;;6272550;28;20193;-65
2024/01/23 13:49:41;;;;;;;0.70;0.60;;;;;;;;;;6285844;28;20276;-65
2024/01/23 13:52:42;;;;;;;0.70;0.50;;;;;;;;;;6291699;28;20278;-65
2024/01/23 13:55:43;;;;;;;0.57;0.57;;;;;;;;;;6293089;28;20179;-66
2024/01/23 13:58:44;;;;;;;0.77;0.70;;;;;;;;;;6282742;28;20188;-66
2024/01/23 14:01:45;;;;;;;1.00;0.77;;;;;;;;;;6281493;28;20275;-65
2024/01/23 14:04:47;;;;;;;0.50;0.50;;;;;;;;;;6269359;28;20208;-65
2024/01/23 14:07:48;;;;;;;1.37;0.80;;;;;;;;;;6277927;28;20182;-65
2024/01/23 14:10:49;;;;;;;0.80;0.63;;;;;;;;;;6322680;28;20180;-65
2024/01/23 14:13:50;;;;;;;1.50;0.80;;;;;;;;;;6308841;28;20188;-63
2024/01/23 14:16:51;;;;;;;0.50;0.50;;;;;;;;;;6289792;28;20182;-63
2024/01/23 14:19:52;;;;;;;0.80;0.67;;;;;;;;;;6305758;28;20184;-65
2024/01/23 14:22:54;;;;;;;1.17;0.70;;;;;;;;;;6279269;28;20214;-66
2024/01/23 14:25:56;;;;;;;0.90;0.60;;;;;;;;;;6293729;28;20219;-66
2024/01/23 14:28:57;;;;;;;1.47;0.60;;;;;;;;;;6292968;28;20188;-65
2024/01/23 14:31:58;;;;;;;0.57;0.30;;;;;;;;;;6283000;28;20189;-65
2024/01/23 14:34:59;;;;;;;2.60;0.70;;;;;;;;;;6286841;28;20201;-65
2024/01/23 14:38:00;;;;;;;2.97;1.10;;;;;;;;;;6286383;28;20189;-65
2024/01/23 14:41:01;;;;;;;2.13;1.37;;;24.00;50.00;;;;;;6279417;28;20204;-65
2024/01/23 14:44:02;;;;;;;0.70;0.60;;;7.90;66.20;;;;;;6266424;28;20346;-65
2024/01/23 14:47:05;;;;;;;0.70;0.53;;;;;;;;;;6279292;28;20189;-65
2024/01/23 14:50:07;;;;;;;2.07;1.27;;;;;;;;;;6285578;28;20185;-64
2024/01/23 14:53:08;;;;;;;1.30;1.10;;;;;;;;;;6289809;28;20189;-64
2024/01/23 14:56:09;;;;;;;1.00;0.63;;;;;;;;;;6296086;28;20184;-64
2024/01/23 14:59:10;;;;;;;0.77;0.50;;;;;;;;;;6282564;28;20184;-63
2024/01/23 15:02:11;;;;;;;4.27;0.80;;;;;;;;;;6282910;28;20220;-65
2024/01/23 15:05:12;;;;;;;0.93;0.50;;;;;;;;;;6278585;28;20235;-63
2024/01/23 15:08:13;;;;;;;4.80;0.87;;;;;;;;;;6292374;28;20329;-66
2024/01/23 15:11:14;;;;;;;3.13;0.93;;;;;;;;;;6287355;28;20192;-65
2024/01/23 15:14:15;;;;;;;0.93;0.70;;;;;;;;;;6304873;28;20666;-66
2024/01/23 15:17:16;;;;;;;1.07;0.60;;;;;;;;;;6291219;28;20242;-67
2024/01/23 15:20:17;;;;;;;0.60;0.60;;;;;;;;;;6285385;28;20189;-67
2024/01/23 15:23:18;;;;;;;1.20;0.70;;;;;;;;;;6281184;28;20252;-66
2024/01/23 15:26:19;;;;;;;2.63;0.70;;;;;;;;;;6279457;28;20192;-66
2024/01/23 15:29:20;;;;;;;2.73;0.50;;;;;;;;;;6304363;28;20184;-67
2024/01/23 15:32:22;;;;;;;2.20;1.00;;;;;;;;;;6300106;28;20200;-66
2024/01/23 15:35:23;;;;;;;2.67;1.10;;;;;;;;;;6288408;28;20279;-65
2024/01/23 15:38:24;;;;;;;0.97;0.87;;;;;;;;;;6289499;28;20292;-64
2024/01/23 15:41:24;;;;;;;3.17;1.10;;;7.60;69.70;;;;;;6290295;28;20219;-64
2024/01/23 15:44:25;;;;;;;1.77;1.10;;;5.80;74.10;;;;;;6267606;28;20204;-64
2024/01/23 15:47:27;;;;;;;1.20;1.10;;;5.60;78.50;;;;;;6288486;28;20188;-64